sensor_id;sensor_type;location;lat;lon;timestamp;temperature;humidity
36924;DHT22;22841;50.252;18.688;2022-12-29T00:01:32;2.60;30.90
36924;DHT22;22841;50.252;18.688;2022-12-29T00:03:58;2.60;22.10
36924;DHT22;22841;50.252;18.688;2022-12-29T00:06:25;2.60;32.10
36924;DHT22;22841;50.252;18.688;2022-12-29T00:08:51;2.60;28.00
36924;DHT22;22841;50.252;18.688;2022-12-29T00:11:28;2.60;29.60
36924;DHT22;22841;50.252;18.688;2022-12-29T00:13:54;2.60;29.50
36924;DHT22;22841;50.252;18.688;2022-12-29T00:16:42;2.60;27.20
36924;DHT22;22841;50.252;18.688;2022-12-29T00:19:09;2.70;26.20
36924;DHT22;22841;50.252;18.688;2022-12-29T00:21:55;2.70;38.30
36924;DHT22;22841;50.252;18.688;2022-12-29T00:24:39;2.60;20.60
36924;DHT22;22841;50.252;18.688;2022-12-29T00:27:20;2.50;31.70
36924;DHT22;22841;50.252;18.688;2022-12-29T00:30:14;2.50;57.00
36924;DHT22;22841;50.252;18.688;2022-12-29T00:32:59;2.50;56.80
36924;DHT22;22841;50.252;18.688;2022-12-29T00:35:50;2.50;49.50
36924;DHT22;22841;50.252;18.688;2022-12-29T00:38:18;2.40;39.40
36924;DHT22;22841;50.252;18.688;2022-12-29T00:41:03;2.40;22.20
36924;DHT22;22841;50.252;18.688;2022-12-29T00:43:47;2.40;38.40
36924;DHT22;22841;50.252;18.688;2022-12-29T00:46:35;2.40;42.70
36924;DHT22;22841;50.252;18.688;2022-12-29T00:49:02;2.40;55.90
36924;DHT22;22841;50.252;18.688;2022-12-29T00:51:47;2.50;45.00
36924;DHT22;22841;50.252;18.688;2022-12-29T00:54:14;2.50;45.20
36924;DHT22;22841;50.252;18.688;2022-12-29T00:56:41;2.50;60.50
36924;DHT22;22841;50.252;18.688;2022-12-29T00:59:09;2.50;65.40
36924;DHT22;22841;50.252;18.688;2022-12-29T01:01:37;2.50;63.10
36924;DHT22;22841;50.252;18.688;2022-12-29T01:04:03;2.40;53.30
36924;DHT22;22841;50.252;18.688;2022-12-29T01:06:30;2.50;66.80
36924;DHT22;22841;50.252;18.688;2022-12-29T01:08:57;2.60;81.30
36924;DHT22;22841;50.252;18.688;2022-12-29T01:11:41;2.60;79.80
36924;DHT22;22841;50.252;18.688;2022-12-29T01:14:08;2.50;67.50
36924;DHT22;22841;50.252;18.688;2022-12-29T01:16:34;2.60;71.20
36924;DHT22;22841;50.252;18.688;2022-12-29T01:19:02;2.60;76.90
36924;DHT22;22841;50.252;18.688;2022-12-29T01:21:29;2.50;56.00
36924;DHT22;22841;50.252;18.688;2022-12-29T01:23:55;2.40;44.40
36924;DHT22;22841;50.252;18.688;2022-12-29T01:26:21;2.50;61.70
36924;DHT22;22841;50.252;18.688;2022-12-29T01:28:47;2.50;59.70
36924;DHT22;22841;50.252;18.688;2022-12-29T01:31:14;2.50;54.90
36924;DHT22;22841;50.252;18.688;2022-12-29T01:33:41;2.60;46.50
36924;DHT22;22841;50.252;18.688;2022-12-29T01:36:11;2.70;42.70
36924;DHT22;22841;50.252;18.688;2022-12-29T01:38:38;2.70;32.60
36924;DHT22;22841;50.252;18.688;2022-12-29T01:41:07;2.70;43.20
36924;DHT22;22841;50.252;18.688;2022-12-29T01:43:53;2.80;16.90
36924;DHT22;22841;50.252;18.688;2022-12-29T01:46:32;2.80;15.70
36924;DHT22;22841;50.252;18.688;2022-12-29T01:51:26;3.00;1.00
36924;DHT22;22841;50.252;18.688;2022-12-29T01:53:55;3.10;1.00
36924;DHT22;22841;50.252;18.688;2022-12-29T01:56:22;3.30;1.00
36924;DHT22;22841;50.252;18.688;2022-12-29T01:58:51;3.50;1.00
36924;DHT22;22841;50.252;18.688;2022-12-29T02:01:20;3.60;99.90
36924;DHT22;22841;50.252;18.688;2022-12-29T02:03:48;3.60;99.90
36924;DHT22;22841;50.252;18.688;2022-12-29T02:06:19;3.60;99.90
36924;DHT22;22841;50.252;18.688;2022-12-29T02:08:46;3.60;99.90
36924;DHT22;22841;50.252;18.688;2022-12-29T02:11:13;3.70;99.90
36924;DHT22;22841;50.252;18.688;2022-12-29T02:13:39;3.70;99.90
36924;DHT22;22841;50.252;18.688;2022-12-29T02:16:26;3.80;99.90
36924;DHT22;22841;50.252;18.688;2022-12-29T02:30:06;4.10;99.90
36924;DHT22;22841;50.252;18.688;2022-12-29T02:38:38;3.90;99.90
36924;DHT22;22841;50.252;18.688;2022-12-29T02:41:18;3.90;99.90
36924;DHT22;22841;50.252;18.688;2022-12-29T02:43:56;3.90;99.90
36924;DHT22;22841;50.252;18.688;2022-12-29T02:49:26;3.90;99.90
36924;DHT22;22841;50.252;18.688;2022-12-29T02:52:04;3.90;99.90
36924;DHT22;22841;50.252;18.688;2022-12-29T02:54:31;3.90;99.90
36924;DHT22;22841;50.252;18.688;2022-12-29T02:59:53;3.90;99.90
36924;DHT22;22841;50.252;18.688;2022-12-29T03:11:13;4.00;99.90
36924;DHT22;22841;50.252;18.688;2022-12-29T03:14:34;4.10;99.90
36924;DHT22;22841;50.252;18.688;2022-12-29T03:17:46;4.10;99.90
36924;DHT22;22841;50.252;18.688;2022-12-29T03:20:19;4.00;99.90
36924;DHT22;22841;50.252;18.688;2022-12-29T03:22:51;3.90;99.90
36924;DHT22;22841;50.252;18.688;2022-12-29T03:27:55;3.80;99.90
36924;DHT22;22841;50.252;18.688;2022-12-29T03:30:22;3.70;99.90
36924;DHT22;22841;50.252;18.688;2022-12-29T03:32:52;3.70;99.90
36924;DHT22;22841;50.252;18.688;2022-12-29T03:35:22;3.60;99.90
36924;DHT22;22841;50.252;18.688;2022-12-29T03:37:58;3.50;1.00
36924;DHT22;22841;50.252;18.688;2022-12-29T03:40:27;3.50;1.00
36924;DHT22;22841;50.252;18.688;2022-12-29T03:42:55;3.40;1.00
36924;DHT22;22841;50.252;18.688;2022-12-29T03:45:21;3.50;1.00
36924;DHT22;22841;50.252;18.688;2022-12-29T03:47:47;3.50;1.00
36924;DHT22;22841;50.252;18.688;2022-12-29T03:50:14;3.40;1.00
36924;DHT22;22841;50.252;18.688;2022-12-29T03:52:40;3.40;1.00
36924;DHT22;22841;50.252;18.688;2022-12-29T03:55:06;3.40;1.00
36924;DHT22;22841;50.252;18.688;2022-12-29T03:57:32;3.40;1.00
36924;DHT22;22841;50.252;18.688;2022-12-29T03:59:58;3.40;1.00
36924;DHT22;22841;50.252;18.688;2022-12-29T04:02:25;3.50;1.00
36924;DHT22;22841;50.252;18.688;2022-12-29T04:04:51;3.50;1.00
36924;DHT22;22841;50.252;18.688;2022-12-29T04:07:17;3.50;1.00
36924;DHT22;22841;50.252;18.688;2022-12-29T04:09:43;3.50;1.00
36924;DHT22;22841;50.252;18.688;2022-12-29T04:12:09;3.40;1.00
36924;DHT22;22841;50.252;18.688;2022-12-29T04:14:35;3.50;1.00
36924;DHT22;22841;50.252;18.688;2022-12-29T04:17:01;3.60;1.00
36924;DHT22;22841;50.252;18.688;2022-12-29T04:19:27;3.70;99.90
36924;DHT22;22841;50.252;18.688;2022-12-29T04:21:53;3.60;99.90
36924;DHT22;22841;50.252;18.688;2022-12-29T04:24:19;3.60;1.00
36924;DHT22;22841;50.252;18.688;2022-12-29T04:26:45;3.60;1.00
36924;DHT22;22841;50.252;18.688;2022-12-29T04:29:11;3.60;1.00
36924;DHT22;22841;50.252;18.688;2022-12-29T04:31:37;3.60;1.00
36924;DHT22;22841;50.252;18.688;2022-12-29T04:34:03;3.50;1.00
36924;DHT22;22841;50.252;18.688;2022-12-29T04:36:29;3.60;1.00
36924;DHT22;22841;50.252;18.688;2022-12-29T04:38:56;3.50;1.00
36924;DHT22;22841;50.252;18.688;2022-12-29T04:41:22;3.60;1.00
36924;DHT22;22841;50.252;18.688;2022-12-29T04:43:48;3.50;1.00
36924;DHT22;22841;50.252;18.688;2022-12-29T04:46:14;3.40;1.00
36924;DHT22;22841;50.252;18.688;2022-12-29T04:48:40;3.40;1.00
36924;DHT22;22841;50.252;18.688;2022-12-29T04:51:06;3.40;1.00
36924;DHT22;22841;50.252;18.688;2022-12-29T04:53:32;3.50;1.00
36924;DHT22;22841;50.252;18.688;2022-12-29T04:55:58;3.50;1.00
36924;DHT22;22841;50.252;18.688;2022-12-29T04:58:25;3.60;1.00
36924;DHT22;22841;50.252;18.688;2022-12-29T05:00:51;3.60;1.00
36924;DHT22;22841;50.252;18.688;2022-12-29T05:03:17;3.60;1.00
36924;DHT22;22841;50.252;18.688;2022-12-29T05:05:43;3.60;1.00
36924;DHT22;22841;50.252;18.688;2022-12-29T05:08:09;3.60;1.00
36924;DHT22;22841;50.252;18.688;2022-12-29T05:10:36;3.50;1.00
36924;DHT22;22841;50.252;18.688;2022-12-29T05:13:02;3.50;1.00
36924;DHT22;22841;50.252;18.688;2022-12-29T05:15:28;3.50;1.00
36924;DHT22;22841;50.252;18.688;2022-12-29T05:17:54;3.50;1.00
36924;DHT22;22841;50.252;18.688;2022-12-29T05:20:20;3.50;1.00
36924;DHT22;22841;50.252;18.688;2022-12-29T05:22:46;3.50;1.00
36924;DHT22;22841;50.252;18.688;2022-12-29T05:25:12;3.50;1.00
36924;DHT22;22841;50.252;18.688;2022-12-29T05:27:38;3.40;1.00
36924;DHT22;22841;50.252;18.688;2022-12-29T05:30:05;3.40;1.00
36924;DHT22;22841;50.252;18.688;2022-12-29T05:32:31;3.40;1.00
36924;DHT22;22841;50.252;18.688;2022-12-29T05:34:57;3.40;1.00
36924;DHT22;22841;50.252;18.688;2022-12-29T05:37:23;3.40;1.00
36924;DHT22;22841;50.252;18.688;2022-12-29T05:39:49;3.40;1.00
36924;DHT22;22841;50.252;18.688;2022-12-29T05:42:15;3.40;1.00
36924;DHT22;22841;50.252;18.688;2022-12-29T05:44:41;3.40;1.00
36924;DHT22;22841;50.252;18.688;2022-12-29T05:47:07;3.40;1.00
36924;DHT22;22841;50.252;18.688;2022-12-29T05:49:34;3.50;1.00
36924;DHT22;22841;50.252;18.688;2022-12-29T05:52:00;3.50;1.00
36924;DHT22;22841;50.252;18.688;2022-12-29T05:54:26;3.50;1.00
36924;DHT22;22841;50.252;18.688;2022-12-29T05:56:52;3.50;1.00
36924;DHT22;22841;50.252;18.688;2022-12-29T05:59:18;3.50;1.00
36924;DHT22;22841;50.252;18.688;2022-12-29T06:01:44;3.60;1.00
36924;DHT22;22841;50.252;18.688;2022-12-29T06:04:10;3.60;1.00
36924;DHT22;22841;50.252;18.688;2022-12-29T06:06:36;3.60;1.00
36924;DHT22;22841;50.252;18.688;2022-12-29T06:09:02;3.60;1.00
36924;DHT22;22841;50.252;18.688;2022-12-29T06:11:28;3.60;1.00
36924;DHT22;22841;50.252;18.688;2022-12-29T06:13:54;3.50;1.00
36924;DHT22;22841;50.252;18.688;2022-12-29T06:16:20;3.50;3.60
36924;DHT22;22841;50.252;18.688;2022-12-29T06:18:46;3.50;1.00
36924;DHT22;22841;50.252;18.688;2022-12-29T06:21:12;3.60;6.10
36924;DHT22;22841;50.252;18.688;2022-12-29T06:23:38;3.60;1.60
36924;DHT22;22841;50.252;18.688;2022-12-29T06:26:05;3.60;3.80
36924;DHT22;22841;50.252;18.688;2022-12-29T06:28:31;3.50;1.00
36924;DHT22;22841;50.252;18.688;2022-12-29T06:30:57;3.60;1.00
36924;DHT22;22841;50.252;18.688;2022-12-29T06:33:23;3.60;1.00
36924;DHT22;22841;50.252;18.688;2022-12-29T06:35:49;3.60;1.00
36924;DHT22;22841;50.252;18.688;2022-12-29T06:38:16;3.60;1.00
36924;DHT22;22841;50.252;18.688;2022-12-29T06:40:43;3.80;1.00
36924;DHT22;22841;50.252;18.688;2022-12-29T06:43:10;3.80;1.00
36924;DHT22;22841;50.252;18.688;2022-12-29T06:45:38;3.80;1.00
36924;DHT22;22841;50.252;18.688;2022-12-29T06:48:06;3.90;1.00
36924;DHT22;22841;50.252;18.688;2022-12-29T06:50:32;4.00;1.00
36924;DHT22;22841;50.252;18.688;2022-12-29T06:52:58;4.00;1.00
36924;DHT22;22841;50.252;18.688;2022-12-29T06:55:24;4.00;1.00
36924;DHT22;22841;50.252;18.688;2022-12-29T06:57:50;4.00;1.00
36924;DHT22;22841;50.252;18.688;2022-12-29T07:00:16;4.00;1.00
36924;DHT22;22841;50.252;18.688;2022-12-29T07:02:42;4.00;1.00
36924;DHT22;22841;50.252;18.688;2022-12-29T07:05:09;4.10;1.00
36924;DHT22;22841;50.252;18.688;2022-12-29T07:07:35;4.10;1.00
36924;DHT22;22841;50.252;18.688;2022-12-29T07:10:02;4.00;1.00
36924;DHT22;22841;50.252;18.688;2022-12-29T07:12:28;4.10;1.00
36924;DHT22;22841;50.252;18.688;2022-12-29T07:14:55;4.10;1.00
36924;DHT22;22841;50.252;18.688;2022-12-29T07:17:21;4.10;1.00
36924;DHT22;22841;50.252;18.688;2022-12-29T07:19:47;4.10;1.00
36924;DHT22;22841;50.252;18.688;2022-12-29T07:22:13;4.10;1.00
36924;DHT22;22841;50.252;18.688;2022-12-29T07:24:39;4.20;1.00
36924;DHT22;22841;50.252;18.688;2022-12-29T07:27:05;4.10;1.00
36924;DHT22;22841;50.252;18.688;2022-12-29T07:29:31;4.20;1.00
36924;DHT22;22841;50.252;18.688;2022-12-29T07:31:58;4.20;1.00
36924;DHT22;22841;50.252;18.688;2022-12-29T07:34:24;4.20;1.00
36924;DHT22;22841;50.252;18.688;2022-12-29T07:36:50;4.20;1.00
36924;DHT22;22841;50.252;18.688;2022-12-29T07:39:16;4.30;1.00
36924;DHT22;22841;50.252;18.688;2022-12-29T07:41:42;4.20;1.00
36924;DHT22;22841;50.252;18.688;2022-12-29T07:44:08;4.10;1.00
36924;DHT22;22841;50.252;18.688;2022-12-29T07:46:34;4.10;1.00
36924;DHT22;22841;50.252;18.688;2022-12-29T07:49:00;4.20;1.00
36924;DHT22;22841;50.252;18.688;2022-12-29T07:51:26;4.10;1.00
36924;DHT22;22841;50.252;18.688;2022-12-29T07:53:52;4.10;1.00
36924;DHT22;22841;50.252;18.688;2022-12-29T07:56:18;4.00;1.00
36924;DHT22;22841;50.252;18.688;2022-12-29T07:58:45;4.10;1.00
36924;DHT22;22841;50.252;18.688;2022-12-29T08:01:11;4.10;1.00
36924;DHT22;22841;50.252;18.688;2022-12-29T08:03:37;4.20;1.00
36924;DHT22;22841;50.252;18.688;2022-12-29T08:06:03;4.20;1.00
36924;DHT22;22841;50.252;18.688;2022-12-29T08:08:30;4.20;1.00
36924;DHT22;22841;50.252;18.688;2022-12-29T08:10:56;4.20;1.00
36924;DHT22;22841;50.252;18.688;2022-12-29T08:13:22;4.10;1.00
36924;DHT22;22841;50.252;18.688;2022-12-29T08:15:48;4.20;1.00
36924;DHT22;22841;50.252;18.688;2022-12-29T08:18:14;4.20;1.00
36924;DHT22;22841;50.252;18.688;2022-12-29T08:20:40;4.20;1.00
36924;DHT22;22841;50.252;18.688;2022-12-29T08:23:06;4.20;1.00
36924;DHT22;22841;50.252;18.688;2022-12-29T08:25:32;4.20;1.00
36924;DHT22;22841;50.252;18.688;2022-12-29T08:27:58;4.20;1.00
36924;DHT22;22841;50.252;18.688;2022-12-29T08:30:24;4.20;1.00
36924;DHT22;22841;50.252;18.688;2022-12-29T08:32:52;4.20;1.00
36924;DHT22;22841;50.252;18.688;2022-12-29T08:35:18;4.20;1.00
36924;DHT22;22841;50.252;18.688;2022-12-29T08:37:44;4.20;1.00
36924;DHT22;22841;50.252;18.688;2022-12-29T08:40:10;4.20;1.00
36924;DHT22;22841;50.252;18.688;2022-12-29T08:42:36;4.30;1.00
36924;DHT22;22841;50.252;18.688;2022-12-29T08:45:03;4.40;1.00
36924;DHT22;22841;50.252;18.688;2022-12-29T08:47:29;4.40;1.00
36924;DHT22;22841;50.252;18.688;2022-12-29T08:49:55;4.60;1.00
36924;DHT22;22841;50.252;18.688;2022-12-29T08:52:21;4.60;1.00
36924;DHT22;22841;50.252;18.688;2022-12-29T08:54:47;4.60;1.00
36924;DHT22;22841;50.252;18.688;2022-12-29T08:57:13;4.60;1.00
36924;DHT22;22841;50.252;18.688;2022-12-29T08:59:39;4.70;1.00
36924;DHT22;22841;50.252;18.688;2022-12-29T09:02:05;4.80;1.00
36924;DHT22;22841;50.252;18.688;2022-12-29T09:04:32;4.80;1.00
36924;DHT22;22841;50.252;18.688;2022-12-29T09:06:58;4.90;1.00
36924;DHT22;22841;50.252;18.688;2022-12-29T09:09:24;4.90;1.00
36924;DHT22;22841;50.252;18.688;2022-12-29T09:11:50;4.90;1.00
36924;DHT22;22841;50.252;18.688;2022-12-29T09:14:16;5.10;99.90
36924;DHT22;22841;50.252;18.688;2022-12-29T09:16:42;5.10;99.90
36924;DHT22;22841;50.252;18.688;2022-12-29T09:19:27;5.30;1.00
36924;DHT22;22841;50.252;18.688;2022-12-29T09:21:53;5.40;1.00
36924;DHT22;22841;50.252;18.688;2022-12-29T09:24:19;5.50;99.90
36924;DHT22;22841;50.252;18.688;2022-12-29T09:26:45;5.50;99.90
36924;DHT22;22841;50.252;18.688;2022-12-29T09:29:11;5.60;99.90
36924;DHT22;22841;50.252;18.688;2022-12-29T09:31:37;5.50;99.90
36924;DHT22;22841;50.252;18.688;2022-12-29T09:34:03;5.60;99.90
36924;DHT22;22841;50.252;18.688;2022-12-29T09:36:29;5.60;99.90
36924;DHT22;22841;50.252;18.688;2022-12-29T09:38:55;5.70;99.90
36924;DHT22;22841;50.252;18.688;2022-12-29T09:41:38;5.70;99.90
36924;DHT22;22841;50.252;18.688;2022-12-29T09:46:49;5.70;99.90
36924;DHT22;22841;50.252;18.688;2022-12-29T09:49:21;5.70;99.90
36924;DHT22;22841;50.252;18.688;2022-12-29T09:51:52;5.80;99.90
36924;DHT22;22841;50.252;18.688;2022-12-29T09:54:41;5.90;99.90
36924;DHT22;22841;50.252;18.688;2022-12-29T09:57:20;6.00;99.90
36924;DHT22;22841;50.252;18.688;2022-12-29T09:59:50;6.10;99.90
36924;DHT22;22841;50.252;18.688;2022-12-29T10:04:44;6.20;99.90
36924;DHT22;22841;50.252;18.688;2022-12-29T10:16:15;6.20;99.90
36924;DHT22;22841;50.252;18.688;2022-12-29T10:24:21;6.50;99.90
36924;DHT22;22841;50.252;18.688;2022-12-29T10:26:51;6.60;99.90
36924;DHT22;22841;50.252;18.688;2022-12-29T10:29:23;6.50;99.90
36924;DHT22;22841;50.252;18.688;2022-12-29T10:32:20;6.50;99.90
36924;DHT22;22841;50.252;18.688;2022-12-29T10:34:50;6.60;99.90
36924;DHT22;22841;50.252;18.688;2022-12-29T10:37:38;6.50;99.90
36924;DHT22;22841;50.252;18.688;2022-12-29T10:42:56;6.60;99.90
36924;DHT22;22841;50.252;18.688;2022-12-29T10:45:29;6.70;99.90
36924;DHT22;22841;50.252;18.688;2022-12-29T10:48:08;6.80;99.90
36924;DHT22;22841;50.252;18.688;2022-12-29T10:50:35;6.90;99.90
36924;DHT22;22841;50.252;18.688;2022-12-29T10:53:04;6.90;99.90
36924;DHT22;22841;50.252;18.688;2022-12-29T10:55:35;6.90;99.90
36924;DHT22;22841;50.252;18.688;2022-12-29T10:58:04;6.90;99.90
36924;DHT22;22841;50.252;18.688;2022-12-29T11:00:32;6.90;99.90
36924;DHT22;22841;50.252;18.688;2022-12-29T11:06:27;7.00;99.90
36924;DHT22;22841;50.252;18.688;2022-12-29T11:09:30;7.00;99.90
36924;DHT22;22841;50.252;18.688;2022-12-29T11:12:17;7.00;99.90
36924;DHT22;22841;50.252;18.688;2022-12-29T11:14:44;7.10;99.90
36924;DHT22;22841;50.252;18.688;2022-12-29T11:17:22;7.20;99.90
36924;DHT22;22841;50.252;18.688;2022-12-29T11:19:55;7.20;57.90
36924;DHT22;22841;50.252;18.688;2022-12-29T11:22:27;7.20;99.90
36924;DHT22;22841;50.252;18.688;2022-12-29T11:24:55;7.30;99.90
36924;DHT22;22841;50.252;18.688;2022-12-29T11:27:30;7.30;43.40
36924;DHT22;22841;50.252;18.688;2022-12-29T11:29:58;7.30;1.00
36924;DHT22;22841;50.252;18.688;2022-12-29T11:32:26;7.40;17.20
36924;DHT22;22841;50.252;18.688;2022-12-29T11:34:53;7.40;99.30
36924;DHT22;22841;50.252;18.688;2022-12-29T11:40:02;7.40;95.00
36924;DHT22;22841;50.252;18.688;2022-12-29T11:42:48;7.50;99.90
36924;DHT22;22841;50.252;18.688;2022-12-29T11:45:23;7.60;74.50
36924;DHT22;22841;50.252;18.688;2022-12-29T11:47:53;7.70;32.50
36924;DHT22;22841;50.252;18.688;2022-12-29T11:50:36;7.80;99.90
36924;DHT22;22841;50.252;18.688;2022-12-29T11:53:22;7.80;99.90
36924;DHT22;22841;50.252;18.688;2022-12-29T11:56:08;7.90;1.00
36924;DHT22;22841;50.252;18.688;2022-12-29T11:58:38;8.00;1.00
36924;DHT22;22841;50.252;18.688;2022-12-29T12:01:16;8.00;99.90
36924;DHT22;22841;50.252;18.688;2022-12-29T12:03:52;8.00;1.00
36924;DHT22;22841;50.252;18.688;2022-12-29T12:06:23;8.10;99.90
36924;DHT22;22841;50.252;18.688;2022-12-29T12:09:22;8.10;38.20
36924;DHT22;22841;50.252;18.688;2022-12-29T12:11:52;8.10;99.90
36924;DHT22;22841;50.252;18.688;2022-12-29T12:14:37;8.10;1.00
36924;DHT22;22841;50.252;18.688;2022-12-29T12:19:43;8.00;1.00
36924;DHT22;22841;50.252;18.688;2022-12-29T12:22:19;8.00;1.00
36924;DHT22;22841;50.252;18.688;2022-12-29T12:24:52;7.90;1.00
36924;DHT22;22841;50.252;18.688;2022-12-29T12:30:15;7.90;1.00
36924;DHT22;22841;50.252;18.688;2022-12-29T12:35:30;7.90;1.00
36924;DHT22;22841;50.252;18.688;2022-12-29T12:38:31;7.90;1.00
36924;DHT22;22841;50.252;18.688;2022-12-29T12:52:22;8.10;99.90
36924;DHT22;22841;50.252;18.688;2022-12-29T12:58:28;8.10;99.90
36924;DHT22;22841;50.252;18.688;2022-12-29T13:04:45;8.10;1.00
36924;DHT22;22841;50.252;18.688;2022-12-29T13:10:30;8.20;99.90
36924;DHT22;22841;50.252;18.688;2022-12-29T13:13:22;8.30;99.90
36924;DHT22;22841;50.252;18.688;2022-12-29T13:24:19;8.20;1.00
36924;DHT22;22841;50.252;18.688;2022-12-29T13:27:09;8.10;6.70
36924;DHT22;22841;50.252;18.688;2022-12-29T13:30:10;8.10;1.00
36924;DHT22;22841;50.252;18.688;2022-12-29T13:37:53;8.10;99.90
36924;DHT22;22841;50.252;18.688;2022-12-29T13:40:25;8.10;1.00
36924;DHT22;22841;50.252;18.688;2022-12-29T13:42:53;8.00;99.70
36924;DHT22;22841;50.252;18.688;2022-12-29T13:45:23;8.00;19.90
36924;DHT22;22841;50.252;18.688;2022-12-29T13:50:55;8.00;16.30
36924;DHT22;22841;50.252;18.688;2022-12-29T13:55:58;7.80;99.90
36924;DHT22;22841;50.252;18.688;2022-12-29T14:01:13;7.80;99.90
36924;DHT22;22841;50.252;18.688;2022-12-29T14:03:56;7.70;99.90
36924;DHT22;22841;50.252;18.688;2022-12-29T14:06:29;7.70;99.90
36924;DHT22;22841;50.252;18.688;2022-12-29T14:09:04;7.70;99.90
36924;DHT22;22841;50.252;18.688;2022-12-29T14:11:39;7.70;99.90
36924;DHT22;22841;50.252;18.688;2022-12-29T14:14:21;7.60;99.90
36924;DHT22;22841;50.252;18.688;2022-12-29T14:16:48;7.60;99.90
36924;DHT22;22841;50.252;18.688;2022-12-29T14:22:06;7.50;99.90
36924;DHT22;22841;50.252;18.688;2022-12-29T14:37:29;7.10;99.90
36924;DHT22;22841;50.252;18.688;2022-12-29T14:40:15;7.10;1.00
36924;DHT22;22841;50.252;18.688;2022-12-29T14:42:46;7.20;1.00
36924;DHT22;22841;50.252;18.688;2022-12-29T14:53:00;7.40;99.90
36924;DHT22;22841;50.252;18.688;2022-12-29T14:55:43;7.40;99.90
36924;DHT22;22841;50.252;18.688;2022-12-29T14:58:27;7.40;99.90
36924;DHT22;22841;50.252;18.688;2022-12-29T15:00:54;7.40;99.90
36924;DHT22;22841;50.252;18.688;2022-12-29T15:03:32;7.40;99.90
36924;DHT22;22841;50.252;18.688;2022-12-29T15:06:04;7.30;99.90
36924;DHT22;22841;50.252;18.688;2022-12-29T15:08:36;7.30;99.90
36924;DHT22;22841;50.252;18.688;2022-12-29T15:13:44;7.20;1.00
36924;DHT22;22841;50.252;18.688;2022-12-29T15:16:33;7.10;1.00
36924;DHT22;22841;50.252;18.688;2022-12-29T15:18:59;7.20;1.00
36924;DHT22;22841;50.252;18.688;2022-12-29T15:21:30;7.10;1.00
36924;DHT22;22841;50.252;18.688;2022-12-29T15:23:57;7.20;1.00
36924;DHT22;22841;50.252;18.688;2022-12-29T15:26:37;7.20;1.00
36924;DHT22;22841;50.252;18.688;2022-12-29T15:29:04;7.10;1.00
36924;DHT22;22841;50.252;18.688;2022-12-29T15:31:30;7.20;1.00
36924;DHT22;22841;50.252;18.688;2022-12-29T15:34:12;7.10;1.00
36924;DHT22;22841;50.252;18.688;2022-12-29T15:36:39;7.10;1.00
36924;DHT22;22841;50.252;18.688;2022-12-29T15:39:19;7.10;1.00
36924;DHT22;22841;50.252;18.688;2022-12-29T15:44:44;7.10;1.00
36924;DHT22;22841;50.252;18.688;2022-12-29T15:47:17;7.10;1.00
36924;DHT22;22841;50.252;18.688;2022-12-29T15:49:45;7.20;1.00
36924;DHT22;22841;50.252;18.688;2022-12-29T15:52:18;7.20;1.00
36924;DHT22;22841;50.252;18.688;2022-12-29T15:54:46;7.20;99.90
36924;DHT22;22841;50.252;18.688;2022-12-29T15:57:41;7.20;1.00
36924;DHT22;22841;50.252;18.688;2022-12-29T16:00:31;7.20;99.90
36924;DHT22;22841;50.252;18.688;2022-12-29T16:03:00;7.20;99.90
36924;DHT22;22841;50.252;18.688;2022-12-29T16:05:34;7.30;99.90
36924;DHT22;22841;50.252;18.688;2022-12-29T16:08:01;7.20;99.90
36924;DHT22;22841;50.252;18.688;2022-12-29T16:10:35;7.20;99.90
36924;DHT22;22841;50.252;18.688;2022-12-29T16:15:46;7.20;99.90
36924;DHT22;22841;50.252;18.688;2022-12-29T16:18:34;7.20;99.90
36924;DHT22;22841;50.252;18.688;2022-12-29T16:21:04;7.10;1.00
36924;DHT22;22841;50.252;18.688;2022-12-29T16:23:31;7.00;1.00
36924;DHT22;22841;50.252;18.688;2022-12-29T16:25:58;7.00;1.00
36924;DHT22;22841;50.252;18.688;2022-12-29T16:28:36;7.00;1.00
36924;DHT22;22841;50.252;18.688;2022-12-29T16:31:13;7.00;1.00
36924;DHT22;22841;50.252;18.688;2022-12-29T16:39:25;7.00;1.00
36924;DHT22;22841;50.252;18.688;2022-12-29T16:41:53;6.90;1.00
36924;DHT22;22841;50.252;18.688;2022-12-29T16:44:28;7.00;1.00
36924;DHT22;22841;50.252;18.688;2022-12-29T16:49:32;7.00;1.00
36924;DHT22;22841;50.252;18.688;2022-12-29T16:51:58;7.00;99.90
36924;DHT22;22841;50.252;18.688;2022-12-29T16:54:30;7.00;99.90
36924;DHT22;22841;50.252;18.688;2022-12-29T16:56:57;7.10;99.90
36924;DHT22;22841;50.252;18.688;2022-12-29T17:01:57;7.00;99.90
36924;DHT22;22841;50.252;18.688;2022-12-29T17:04:24;7.00;99.90
36924;DHT22;22841;50.252;18.688;2022-12-29T17:06:50;7.00;99.90
36924;DHT22;22841;50.252;18.688;2022-12-29T17:09:22;7.00;99.90
36924;DHT22;22841;50.252;18.688;2022-12-29T17:11:53;7.00;99.90
36924;DHT22;22841;50.252;18.688;2022-12-29T17:16:46;7.10;99.90
36924;DHT22;22841;50.252;18.688;2022-12-29T17:19:17;7.00;99.90
36924;DHT22;22841;50.252;18.688;2022-12-29T17:21:43;7.00;99.90
36924;DHT22;22841;50.252;18.688;2022-12-29T17:24:16;6.90;99.90
36924;DHT22;22841;50.252;18.688;2022-12-29T17:26:44;6.90;99.90
36924;DHT22;22841;50.252;18.688;2022-12-29T17:29:39;6.90;99.90
36924;DHT22;22841;50.252;18.688;2022-12-29T17:32:06;6.80;99.90
36924;DHT22;22841;50.252;18.688;2022-12-29T17:34:35;6.80;99.90
36924;DHT22;22841;50.252;18.688;2022-12-29T17:37:01;6.70;99.90
36924;DHT22;22841;50.252;18.688;2022-12-29T17:39:27;6.80;99.90
36924;DHT22;22841;50.252;18.688;2022-12-29T17:41:53;6.80;99.90
36924;DHT22;22841;50.252;18.688;2022-12-29T17:44:20;6.70;99.90
36924;DHT22;22841;50.252;18.688;2022-12-29T17:46:47;6.70;99.90
36924;DHT22;22841;50.252;18.688;2022-12-29T17:49:15;6.70;99.90
36924;DHT22;22841;50.252;18.688;2022-12-29T17:51:42;6.70;99.90
36924;DHT22;22841;50.252;18.688;2022-12-29T17:54:21;6.60;99.90
36924;DHT22;22841;50.252;18.688;2022-12-29T17:56:48;6.60;99.90
36924;DHT22;22841;50.252;18.688;2022-12-29T17:59:15;6.60;99.90
36924;DHT22;22841;50.252;18.688;2022-12-29T18:01:42;6.60;99.90
36924;DHT22;22841;50.252;18.688;2022-12-29T18:04:17;6.70;99.90
36924;DHT22;22841;50.252;18.688;2022-12-29T18:06:45;6.70;99.90
36924;DHT22;22841;50.252;18.688;2022-12-29T18:09:12;6.60;99.90
36924;DHT22;22841;50.252;18.688;2022-12-29T18:11:43;6.60;99.90
36924;DHT22;22841;50.252;18.688;2022-12-29T18:14:16;6.60;99.90
36924;DHT22;22841;50.252;18.688;2022-12-29T18:16:43;6.60;99.90
36924;DHT22;22841;50.252;18.688;2022-12-29T18:19:09;6.50;99.90
36924;DHT22;22841;50.252;18.688;2022-12-29T18:21:36;6.60;99.90
36924;DHT22;22841;50.252;18.688;2022-12-29T18:24:03;6.60;99.90
36924;DHT22;22841;50.252;18.688;2022-12-29T18:26:30;6.50;99.90
36924;DHT22;22841;50.252;18.688;2022-12-29T18:28:58;6.50;99.90
36924;DHT22;22841;50.252;18.688;2022-12-29T18:31:31;6.50;99.90
36924;DHT22;22841;50.252;18.688;2022-12-29T18:34:00;6.50;99.90
36924;DHT22;22841;50.252;18.688;2022-12-29T18:36:27;6.50;99.90
36924;DHT22;22841;50.252;18.688;2022-12-29T18:38:53;6.40;1.00
36924;DHT22;22841;50.252;18.688;2022-12-29T18:41:22;6.40;1.00